Time;durP1;ratioP1;P1;durP2;ratioP2;P2;SDS_P1;SDS_P2;PMS_P1;PMS_P2;Temp;Humidity;BMP_temperature;BMP_pressure;BME280_temperature;BME280_humidity;BME280_pressure;Samples;Min_cycle;Max_cycle;Signal;HPM_P1;HPM_P2
2021/03/04 00:01:38;;;;;;;13.08;9.18;;;;;;;-1.84;81.11;100424.89;1814326;79;22087;-72
2021/03/04 00:04:07;;;;;;;12.00;8.25;;;;;;;-1.84;81.32;100418.94;1814260;78;21586;-72
2021/03/04 00:06:36;;;;;;;10.40;8.38;;;;;;;-1.83;81.54;100418.09;1814284;79;21634;-72
2021/03/04 00:09:05;;;;;;;11.15;8.25;;;;;;;-1.82;81.67;100403.20;1814229;79;21488;-72
2021/03/04 00:11:35;;;;;;;11.88;8.43;;;;;;;-1.82;81.72;100403.20;1814320;79;20920;-72
2021/03/04 00:14:03;;;;;;;13.35;9.25;;;;;;;-1.83;81.88;100397.67;1814301;79;22168;-72
2021/03/04 00:16:32;;;;;;;13.50;9.80;;;;;;;-1.83;82.05;100390.86;1814171;79;21479;-71
2021/03/04 00:19:00;;;;;;;15.75;10.00;;;;;;;-1.83;82.17;100379.37;1814250;79;21535;-66
2021/03/04 00:21:28;;;;;;;18.27;11.63;;;;;;;-1.84;82.16;100377.67;1814287;79;21555;-66
2021/03/04 00:23:57;;;;;;;17.32;13.15;;;;;;;-1.86;82.19;100376.83;1814231;79;21519;-66
2021/03/04 00:26:25;;;;;;;17.07;13.53;;;;;;;-1.88;82.17;100370.87;1814230;79;22111;-66
2021/03/04 00:28:54;;;;;;;21.23;13.58;;;;;;;-1.90;82.07;100363.64;1814153;79;21532;-66
2021/03/04 00:31:22;;;;;;;22.32;14.40;;;;;;;-1.93;81.99;100357.68;1814317;79;21540;-66
2021/03/04 00:33:51;;;;;;;18.98;12.65;;;;;;;-1.96;81.89;100355.13;1814283;79;21460;-66
2021/03/04 00:36:20;;;;;;;15.55;10.88;;;;;;;-2.00;81.95;100352.18;1814210;79;20966;-68
2021/03/04 00:38:48;;;;;;;14.80;11.08;;;;;;;-2.05;82.09;100342.82;1814362;79;22109;-67
2021/03/04 00:41:17;;;;;;;16.40;11.38;;;;;;;-2.08;82.13;100336.45;1814160;79;21544;-67
2021/03/04 00:43:45;;;;;;;15.93;11.68;;;;;;;-2.10;82.25;100329.64;1814222;79;21531;-68
2021/03/04 00:46:14;;;;;;;16.12;11.68;;;;;;;-2.13;82.42;100333.04;1814197;79;21523;-71
2021/03/04 00:48:42;;;;;;;13.53;10.50;;;;;;;-2.14;82.43;100326.66;1814331;79;21463;-71
2021/03/04 00:51:11;;;;;;;17.25;12.07;;;;;;;-2.17;82.35;100322.41;1814231;79;21659;-72
2021/03/04 00:53:39;;;;;;;16.75;11.90;;;;;;;-2.20;82.28;100320.28;1814154;79;21539;-71
2021/03/04 00:56:08;;;;;;;17.27;11.10;;;;;;;-2.25;82.23;100312.63;1814172;79;21579;-72
2021/03/04 00:58:36;;;;;;;16.93;11.33;;;;;;;-2.29;82.11;100304.55;1814172;78;21657;-71
2021/03/04 01:01:05;;;;;;;15.72;12.15;;;;;;;-2.34;82.16;100302.41;1812536;79;21473;-71
2021/03/04 01:03:34;;;;;;;17.23;13.38;;;;;;;-2.38;82.26;100297.73;1811625;79;21108;-72
2021/03/04 01:06:03;;;;;;;19.07;12.85;;;;;;;-2.42;82.24;100287.14;1811577;79;20941;-71
2021/03/04 01:08:31;;;;;;;18.52;12.58;;;;;;;-2.46;82.27;100290.95;1811712;79;20938;-71
2021/03/04 01:11:00;;;;;;;17.95;12.35;;;;;;;-2.50;82.44;100287.55;1811597;79;21013;-72
2021/03/04 01:13:28;;;;;;;19.25;12.60;;;;;;;-2.53;82.63;100276.08;1811658;79;20934;-72
2021/03/04 01:15:56;;;;;;;18.95;13.60;;;;;;;-2.55;82.74;100275.22;1811673;79;22142;-71
2021/03/04 01:18:26;;;;;;;18.02;12.60;;;;;;;-2.58;82.85;100267.57;1811556;79;21060;-72
2021/03/04 01:20:55;;;;;;;16.95;12.37;;;;;;;-2.60;83.08;100263.31;1811675;79;20974;-72
2021/03/04 01:23:29;;;;;;;17.87;11.78;;;;;;;-2.62;83.17;100254.81;1811603;79;20989;-70
2021/03/04 01:25:59;;;;;;;20.08;12.63;;;;;;;-2.66;83.27;100255.23;1811660;79;20957;-71
2021/03/04 01:28:27;;;;;;;15.55;12.23;;;;;;;-2.66;83.48;100241.22;1811681;79;22084;-72
2021/03/04 01:30:55;;;;;;;17.25;12.68;;;;;;;-2.68;83.70;100234.00;1811560;79;21591;-71
2021/03/04 01:33:24;;;;;;;18.50;12.50;;;;;;;-2.68;83.87;100230.17;1811598;79;20898;-71
2021/03/04 01:35:52;;;;;;;19.12;12.63;;;;;;;-2.68;84.05;100231.45;1811575;79;20993;-72
2021/03/04 01:38:20;;;;;;;16.32;12.53;;;;;;;-2.67;84.13;100228.47;1811679;79;21158;-72
2021/03/04 01:40:48;;;;;;;20.35;13.78;;;;;;;-2.67;84.24;100215.73;1811724;79;22152;-72
2021/03/04 01:43:17;;;;;;;18.17;13.20;;;;;;;-2.66;84.40;100217.43;1811641;79;21574;-72
2021/03/04 01:45:45;;;;;;;25.25;15.38;;;;;;;-2.66;84.58;100208.51;1811619;79;20934;-72
2021/03/04 01:48:14;;;;;;;22.98;16.50;;;;;;;-2.66;84.77;100205.95;1811545;79;20924;-72
2021/03/04 01:50:43;;;;;;;22.62;15.55;;;;;;;-2.64;84.84;100218.28;1811635;79;20918;-72
2021/03/04 01:53:11;;;;;;;19.45;14.13;;;;;;;-2.64;84.88;100206.81;1811588;79;21129;-71
2021/03/04 01:55:39;;;;;;;20.60;13.90;;;;;;;-2.64;85.03;100205.53;1811515;79;21017;-72
2021/03/04 01:58:07;;;;;;;20.30;13.88;;;;;;;-2.65;85.17;100197.47;1811582;79;20997;-72
2021/03/04 02:00:35;;;;;;;23.90;13.83;;;;;;;-2.64;85.22;100196.61;1811520;78;20922;-72
2021/03/04 02:03:05;;;;;;;24.00;14.05;;;;;;;-2.63;85.37;100202.14;1811740;79;20942;-72
2021/03/04 02:05:34;;;;;;;22.05;14.45;;;;;;;-2.63;85.47;100197.89;1811772;79;22169;-72
2021/03/04 02:08:16;;;;;;;20.20;14.50;;;;;;;-2.62;85.70;100188.12;1811713;79;21444;-72
2021/03/04 02:10:53;;;;;;;25.05;14.93;;;;;;;-2.60;85.84;100183.02;1811573;79;20926;-71
2021/03/04 02:13:50;;;;;;;22.90;15.08;;;;;;;-2.60;85.92;100181.75;1775612;79;21483;-73
2021/03/04 02:16:21;;;;;;;25.10;15.72;;;;;;;-2.60;86.06;100176.23;1812037;79;20981;-72
2021/03/04 02:18:55;;;;;;;19.37;14.75;;;;;;;-2.61;86.19;100177.50;1808268;79;22059;-72
2021/03/04 02:21:59;;;;;;;19.40;13.60;;;;;;;-2.59;86.34;100179.20;1811679;79;21520;-69
2021/03/04 02:24:54;;;;;;;20.35;14.15;;;;;;;-2.59;86.41;100178.34;1811758;79;20985;-68
2021/03/04 02:27:24;;;;;;;21.52;14.45;;;;;;;-2.57;86.75;100176.65;1811756;79;20985;-69
2021/03/04 02:30:00;;;;;;;22.27;15.20;;;;;;;-2.51;87.00;100169.00;1811819;79;21377;-71
2021/03/04 02:32:29;;;;;;;21.82;14.58;;;;;;;-2.44;87.25;100162.63;1811768;79;21240;-72
2021/03/04 02:35:12;;;;;;;24.43;15.50;;;;;;;-2.35;87.49;100150.25;1811706;79;20990;-68
2021/03/04 02:37:44;;;;;;;21.70;15.60;;;;;;;-2.26;87.86;100152.79;1811703;79;21009;-67
2021/03/04 02:40:13;;;;;;;23.20;16.00;;;;;;;-2.14;88.20;100141.72;1811654;79;20941;-67
2021/03/04 02:42:41;;;;;;;22.02;15.23;;;;;;;-2.04;88.51;100131.48;1811748;79;20886;-66
2021/03/04 02:45:11;;;;;;;26.50;17.57;;;;;;;-1.93;88.81;100124.19;1811708;79;21134;-67
2021/03/04 02:47:39;;;;;;;25.27;15.75;;;;;;;-1.83;88.99;100121.59;1811747;79;21013;-67
2021/03/04 02:50:09;;;;;;;28.70;17.80;;;;;;;-1.72;88.96;100119.00;1811741;79;21167;-67
2021/03/04 02:52:37;;;;;;;23.52;16.90;;;;;;;-1.63;89.01;100114.28;1811646;79;20997;-71
2021/03/04 02:55:08;;;;;;;26.05;16.02;;;;;;;-1.56;89.02;100109.53;1811761;79;20942;-67
2021/03/04 02:57:43;;;;;;;22.30;15.63;;;;;;;-1.49;88.90;100102.26;1811709;79;22159;-67
2021/03/04 03:00:14;;;;;;;22.27;15.20;;;;;;;-1.42;88.85;100098.81;1811650;79;20945;-69
2021/03/04 03:02:42;;;;;;;19.40;14.73;;;;;;;-1.38;88.92;100086.45;1811728;79;20993;-73
2021/03/04 03:05:13;;;;;;;21.97;16.23;;;;;;;-1.33;88.99;100085.98;1811646;79;20934;-74
2021/03/04 03:07:42;;;;;;;24.07;15.50;;;;;;;-1.29;88.96;100078.72;1811695;79;20925;-71
2021/03/04 03:10:12;;;;;;;20.37;15.18;;;;;;;-1.23;88.76;100077.41;1811753;79;21327;-67
2021/03/04 03:12:44;;;;;;;20.52;15.48;;;;;;;-1.20;88.65;100065.03;1811651;79;21024;-68
2021/03/04 03:15:16;;;;;;;23.92;15.15;;;;;;;-1.18;88.84;100066.69;1811821;79;21468;-67
2021/03/04 03:17:45;;;;;;;23.73;15.45;;;;;;;-1.13;88.97;100061.11;1811626;79;20937;-67
2021/03/04 03:20:17;;;;;;;22.05;16.15;;;;;;;-1.07;88.67;100064.05;1811740;79;20930;-67
2021/03/04 03:22:46;;;;;;;23.62;15.55;;;;;;;-1.06;88.42;100060.20;1811749;79;21192;-67
2021/03/04 03:25:14;;;;;;;20.50;14.45;;;;;;;-1.03;88.21;100052.95;1811674;79;20993;-67
2021/03/04 03:27:43;;;;;;;19.20;14.73;;;;;;;-1.02;88.18;100049.09;1811713;79;20945;-68
2021/03/04 03:30:18;;;;;;;15.05;11.88;;;;;;;-1.01;88.04;100043.56;1811632;79;21361;-68
2021/03/04 03:32:57;;;;;;;17.27;12.78;;;;;;;-1.00;87.98;100041.42;1811735;79;21029;-69
2021/03/04 03:35:26;;;;;;;20.00;13.75;;;;;;;-0.99;87.86;100039.28;1811816;79;22158;-69
2021/03/04 03:37:59;;;;;;;19.77;13.62;;;;;;;-0.97;88.00;100028.61;1811677;79;21475;-73
2021/03/04 03:40:27;;;;;;;20.77;13.35;;;;;;;-0.93;87.81;100022.62;1788180;79;20993;-71
2021/03/04 03:42:57;;;;;;;21.97;14.78;;;;;;;-0.89;87.75;100023.44;1811701;79;20926;-72
2021/03/04 03:45:30;;;;;;;20.27;14.20;;;;;;;-0.88;87.37;100016.19;1811686;79;20941;-67
2021/03/04 03:48:06;;;;;;;19.05;13.20;;;;;;;-0.85;87.25;100017.00;1890606;76;28608;-67
2021/03/04 03:50:35;;;;;;;19.20;13.53;;;;;;;-0.87;87.41;100017.45;1856120;77;20917;-71
2021/03/04 03:53:03;;;;;;;22.90;14.45;;;;;;;-0.82;87.23;100016.97;1815276;79;21247;-67
2021/03/04 03:55:32;;;;;;;21.95;15.72;;;;;;;-0.79;87.11;100019.90;1815238;79;20922;-68
2021/03/04 03:58:00;;;;;;;20.77;15.23;;;;;;;-0.75;87.18;100015.17;1815367;79;20998;-68
2021/03/04 04:00:29;;;;;;;21.27;15.58;;;;;;;-0.70;87.12;100004.47;1815571;79;21018;-72
2021/03/04 04:03:03;;;;;;;26.45;15.98;;;;;;;-0.65;86.90;99991.63;1815812;79;21445;-71
2021/03/04 04:05:32;;;;;;;27.50;16.77;;;;;;;-0.62;87.04;99989.89;1815697;79;22279;-72
2021/03/04 04:08:00;;;;;;;26.73;16.73;;;;;;;-0.57;87.04;99973.22;1815926;79;21585;-73
2021/03/04 04:10:30;;;;;;;25.70;16.95;;;;;;;-0.53;87.06;99970.61;1815427;79;21587;-72
2021/03/04 04:12:59;;;;;;;24.52;15.98;;;;;;;-0.49;86.90;99957.35;1815226;79;21031;-72
2021/03/04 04:15:28;;;;;;;24.50;16.15;;;;;;;-0.48;86.76;99952.22;1815297;79;21042;-75
2021/03/04 04:18:02;;;;;;;23.85;16.40;;;;;;;-0.46;86.63;99944.53;1815270;79;21347;-72
2021/03/04 04:20:32;;;;;;;22.73;15.48;;;;;;;-0.42;86.78;99939.36;1810444;79;20959;-73
2021/03/04 04:23:01;;;;;;;23.05;16.15;;;;;;;-0.36;86.62;99940.53;1815224;79;21418;-74
2021/03/04 04:25:30;;;;;;;24.65;14.93;;;;;;;-0.33;86.28;99921.73;1815095;78;21014;-73
2021/03/04 04:27:58;;;;;;;25.08;16.05;;;;;;;-0.30;86.20;99915.73;1815344;79;20991;-72
2021/03/04 04:30:27;;;;;;;29.23;17.15;;;;;;;-0.28;86.13;99920.39;1815200;79;21432;-67
2021/03/04 04:32:55;;;;;;;26.10;17.27;;;;;;;-0.27;86.05;99921.66;1815191;78;20959;-66
2021/03/04 04:35:23;;;;;;;24.82;16.93;;;;;;;-0.26;86.04;99913.55;1815213;78;20915;-67
2021/03/04 04:37:52;;;;;;;31.05;18.40;;;;;;;-0.23;85.88;99908.39;1815213;79;21455;-72
2021/03/04 04:40:20;;;;;;;28.75;18.90;;;;;;;-0.22;85.85;99904.52;1815235;79;20944;-74
2021/03/04 04:42:49;;;;;;;27.20;17.27;;;;;;;-0.19;85.61;99889.56;1815189;79;22175;-72
2021/03/04 04:45:17;;;;;;;29.10;18.02;;;;;;;-0.21;85.57;99872.95;1815097;78;21038;-70
2021/03/04 04:47:45;;;;;;;29.98;18.48;;;;;;;-0.20;85.62;99856.73;1807022;79;20996;-72
2021/03/04 04:50:14;;;;;;;27.52;18.05;;;;;;;-0.17;85.49;99857.13;1804075;79;20948;-67
2021/03/04 04:52:42;;;;;;;29.50;19.30;;;;;;;-0.14;85.40;99866.03;1804096;79;20944;-72
2021/03/04 04:55:11;;;;;;;34.08;21.02;;;;;;;-0.14;85.36;99864.75;1804097;79;21296;-73
2021/03/04 04:57:39;;;;;;;39.63;23.07;;;;;;;-0.11;85.92;99875.79;1803840;79;20989;-73
2021/03/04 05:00:08;;;;;;;41.28;23.12;;;;;;;-0.01;86.42;99872.66;1803474;79;21012;-73
2021/03/04 05:02:38;;;;;;;46.10;23.18;;;;;;;0.10;86.22;99872.46;1803502;79;20996;-74
2021/03/04 05:05:08;;;;;;;38.80;20.17;;;;;;;0.16;85.71;99868.09;1803536;79;21027;-73
2021/03/04 05:07:36;;;;;;;34.08;20.95;;;;;;;0.20;85.45;99874.86;1803491;79;21352;-71
2021/03/04 05:10:07;;;;;;;38.95;21.82;;;;;;;0.22;85.22;99878.67;1803422;79;20963;-72
2021/03/04 05:12:36;;;;;;;39.98;21.33;;;;;;;0.23;85.21;99880.36;1803546;79;21023;-73
2021/03/04 05:15:08;;;;;;;34.75;21.33;;;;;;;0.26;85.88;99885.44;1803494;79;20916;-75
2021/03/04 05:17:37;;;;;;;38.58;21.25;;;;;;;0.36;86.12;99874.17;1803556;79;21027;-74
2021/03/04 05:20:08;;;;;;;36.65;20.10;;;;;;;0.46;86.01;99862.87;1803301;79;22054;-77
2021/03/04 05:22:37;;;;;;;37.30;21.65;;;;;;;0.57;85.97;99852.00;1803403;79;21034;-74
2021/03/04 05:25:07;;;;;;;40.00;21.75;;;;;;;0.69;85.85;99859.90;1803545;79;20947;-74
2021/03/04 05:27:35;;;;;;;38.45;22.07;;;;;;;0.77;85.47;99858.04;1803495;79;20936;-74
2021/03/04 05:30:06;;;;;;;38.78;21.10;;;;;;;0.86;85.38;99852.71;1803517;79;20998;-70
2021/03/04 05:32:34;;;;;;;44.10;23.45;;;;;;;0.95;85.26;99851.25;1803511;79;21361;-73
2021/03/04 05:35:04;;;;;;;40.00;22.80;;;;;;;1.05;84.79;99841.66;1803439;79;20944;-75
2021/03/04 05:37:32;;;;;;;46.58;23.30;;;;;;;1.08;84.54;99833.91;1803493;79;20928;-74
2021/03/04 05:40:01;;;;;;;39.48;22.27;;;;;;;1.13;84.34;99839.79;1803492;79;20980;-75
2021/03/04 05:42:31;;;;;;;41.88;23.75;;;;;;;1.15;84.24;99815.40;1791430;79;20987;-75
2021/03/04 05:44:59;;;;;;;42.50;23.15;;;;;;;1.16;84.17;99817.93;1777364;79;21131;-76
2021/03/04 05:47:28;;;;;;;38.90;21.70;;;;;;;1.16;83.95;99810.67;1771651;79;21007;-83
2021/03/04 05:50:02;;;;;;;48.55;24.45;;;;;;;1.16;84.08;99810.23;1799125;78;21041;-74
2021/03/04 05:52:36;;;;;;;51.02;25.15;;;;;;;1.20;84.20;99805.89;1815181;78;21512;-74
2021/03/04 05:55:06;;;;;;;45.63;24.90;;;;;;;1.26;84.46;99807.85;1787403;77;20935;-70
2021/03/04 05:57:34;;;;;;;44.50;23.80;;;;;;;1.34;84.22;99794.86;1794134;78;21112;-76
2021/03/04 06:00:06;;;;;;;47.85;24.10;;;;;;;1.41;84.19;99800.27;1788103;78;20951;-81
2021/03/04 06:02:36;;;;;;;45.03;25.00;;;;;;;1.49;83.98;99791.95;1786896;78;21041;-80
2021/03/04 06:05:07;;;;;;;48.35;24.87;;;;;;;1.60;83.92;99791.72;1772857;79;21086;-76
2021/03/04 06:07:35;;;;;;;49.93;24.55;;;;;;;1.68;83.54;99791.06;1809484;77;20934;-74
2021/03/04 06:10:05;;;;;;;42.90;23.52;;;;;;;1.75;82.93;99787.48;1810430;78;21421;-70
2021/03/04 06:12:34;;;;;;;46.53;24.77;;;;;;;1.80;82.59;99796.36;1815075;78;21666;-66
2021/03/04 06:15:24;;;;;;;46.20;25.02;;;;;;;1.83;82.37;99800.13;1800327;78;21776;-69
2021/03/04 06:17:57;;;;;;;46.90;25.00;;;;;;;1.86;82.32;99792.36;1702862;83;21132;-67
2021/03/04 06:20:41;;;;;;;49.00;24.77;;;;;;;1.90;82.25;99789.68;1713996;83;21613;-67
2021/03/04 06:23:10;;;;;;;49.55;26.37;;;;;;;1.92;82.09;99776.37;1697420;83;22089;-69
2021/03/04 06:25:39;;;;;;;46.13;25.27;;;;;;;1.99;81.96;99775.34;1767509;79;21615;-69
2021/03/04 06:28:07;;;;;;;49.08;27.20;;;;;;;2.06;81.80;99773.87;1769631;79;21664;-70
2021/03/04 06:30:39;;;;;;;47.08;24.77;;;;;;;2.09;81.58;99769.50;1776542;79;21013;-65
2021/03/04 06:33:10;;;;;;;50.75;26.40;;;;;;;2.14;81.43;99759.11;1742921;79;21654;-64
2021/03/04 06:35:41;;;;;;;44.77;24.92;;;;;;;2.18;81.20;99750.44;1782336;79;22856;-66
2021/03/04 06:38:20;;;;;;;44.63;23.87;;;;;;;2.23;81.09;99749.88;1773300;79;21033;-67
2021/03/04 06:40:52;;;;;;;50.10;25.48;;;;;;;2.28;80.86;99741.17;1768331;79;21073;-68
2021/03/04 06:43:26;;;;;;;48.42;25.23;;;;;;;2.34;80.61;99740.16;1768003;79;21029;-69
2021/03/04 06:46:07;;;;;;;50.23;25.82;;;;;;;2.39;80.52;99734.46;1775070;79;21663;-66
2021/03/04 06:48:36;;;;;;;47.20;24.82;;;;;;;2.47;80.50;99731.20;1775163;79;22156;-66
2021/03/04 06:51:06;;;;;;;51.75;28.17;;;;;;;2.57;80.25;99724.93;1731925;81;21045;-64
2021/03/04 06:53:35;;;;;;;49.18;27.00;;;;;;;2.64;79.96;99726.89;1727274;82;21571;-65
2021/03/04 06:56:05;;;;;;;43.00;24.95;;;;;;;2.73;79.83;99727.07;1722960;82;21654;-67
2021/03/04 06:58:39;;;;;;;46.88;26.65;;;;;;;2.83;79.54;99724.60;1713716;82;21051;-66
2021/03/04 07:01:13;;;;;;;54.53;27.80;;;;;;;2.90;79.11;99723.54;1720926;83;21205;-65
2021/03/04 07:03:49;;;;;;;53.02;27.10;;;;;;;2.97;78.78;99718.17;1702162;83;21647;-68
2021/03/04 07:06:22;;;;;;;51.92;29.37;;;;;;;3.03;78.40;99707.30;1762305;79;21041;-67
2021/03/04 07:08:53;;;;;;;53.28;27.55;;;;;;;3.08;78.09;99707.56;1775025;79;21052;-69
2021/03/04 07:11:23;;;;;;;48.92;27.37;;;;;;;3.16;78.00;99700.90;1780519;79;21480;-68
2021/03/04 07:13:52;;;;;;;53.90;28.27;;;;;;;3.25;77.72;99690.29;1772666;79;22244;-70
2021/03/04 07:16:45;;;;;;;53.55;28.20;;;;;;;3.37;77.21;99689.06;1757671;79;21665;-64
2021/03/04 07:19:19;;;;;;;49.80;27.80;;;;;;;3.52;76.86;99689.42;1739954;82;21096;-68
2021/03/04 07:21:48;;;;;;;51.13;28.17;;;;;;;3.69;76.10;99688.84;1750508;81;22245;-68
2021/03/04 07:24:17;;;;;;;55.67;30.23;;;;;;;3.75;76.03;99687.34;1737824;81;21093;-66
2021/03/04 07:26:46;;;;;;;48.45;26.77;;;;;;;3.84;75.39;99680.60;1748386;81;21199;-65
2021/03/04 07:29:15;;;;;;;50.05;27.48;;;;;;;3.90;75.21;99670.09;1717141;81;21082;-65
2021/03/04 07:31:45;;;;;;;55.23;29.37;;;;;;;4.00;74.81;99668.02;1734773;81;21730;-66
2021/03/04 07:34:16;;;;;;;51.40;29.07;;;;;;;4.12;74.42;99659.02;1739006;81;21055;-70
2021/03/04 07:36:49;;;;;;;47.08;26.75;;;;;;;4.27;73.85;99650.74;1699346;84;21056;-70
2021/03/04 07:39:29;;;;;;;50.23;28.40;;;;;;;4.42;73.36;99645.00;1740760;81;21200;-68
2021/03/04 07:41:57;;;;;;;51.20;28.27;;;;;;;4.57;72.75;99638.44;1755331;81;21015;-63
2021/03/04 07:44:33;;;;;;;48.73;28.47;;;;;;;4.74;72.05;99638.64;1749332;81;21008;-67
2021/03/04 07:47:03;;;;;;;50.20;27.33;;;;;;;4.89;71.34;99630.73;1741889;81;21045;-69
2021/03/04 07:49:43;;;;;;;45.58;26.07;;;;;;;5.02;71.04;99622.91;1708242;82;21012;-64
2021/03/04 07:52:22;;;;;;;44.18;24.92;;;;;;;5.17;70.48;99621.02;1712032;83;21213;-65
2021/03/04 07:54:55;;;;;;;48.58;26.52;;;;;;;5.33;69.93;99618.63;1704545;83;21038;-75
2021/03/04 07:57:29;;;;;;;48.08;25.52;;;;;;;5.48;69.37;99617.16;1724045;82;20963;-71
2021/03/04 08:00:02;;;;;;;46.37;26.50;;;;;;;5.56;68.79;99603.48;1698477;84;21529;-69
2021/03/04 08:02:33;;;;;;;51.13;28.42;;;;;;;5.57;68.33;99605.16;1667958;85;21041;-64
2021/03/04 08:05:18;;;;;;;55.63;32.17;;;;;;;5.59;68.22;99611.94;1698526;82;21382;-71
2021/03/04 08:07:50;;;;;;;46.75;27.95;;;;;;;5.67;68.09;99599.95;1734335;82;21621;-69
2021/03/04 08:10:22;;;;;;;58.35;33.63;;;;;;;5.76;67.83;99595.69;1698858;84;21326;-64
2021/03/04 08:13:01;;;;;;;49.93;28.15;;;;;;;5.85;67.62;99597.87;1732393;82;21016;-74
2021/03/04 08:15:41;;;;;;;45.60;27.87;;;;;;;5.95;67.26;99597.06;1746864;82;21026;-71
2021/03/04 08:18:21;;;;;;;44.75;26.80;;;;;;;6.01;66.46;99590.30;1751685;81;22626;-73
2021/03/04 08:20:51;;;;;;;47.95;28.17;;;;;;;6.03;66.23;99584.16;1755025;81;21048;-70
2021/03/04 08:23:20;;;;;;;47.05;28.15;;;;;;;6.05;66.09;99585.39;1755202;81;21571;-63
2021/03/04 08:25:49;;;;;;;46.98;28.07;;;;;;;6.12;65.98;99583.37;1754818;81;21059;-67
2021/03/04 08:28:30;;;;;;;51.37;28.60;;;;;;;6.16;65.68;99577.16;1725663;81;21064;-69
2021/03/04 08:31:09;;;;;;;50.03;28.83;;;;;;;6.20;65.74;99566.61;1760497;81;21437;-69
2021/03/04 08:33:39;;;;;;;48.50;28.92;;;;;;;6.27;65.97;99567.17;1760267;81;21034;-68
2021/03/04 08:36:07;;;;;;;51.00;30.55;;;;;;;6.34;65.84;99561.66;1758044;81;22204;-68
2021/03/04 08:38:40;;;;;;;55.17;30.97;;;;;;;6.46;65.48;99554.20;1757703;80;21041;-67
2021/03/04 08:41:08;;;;;;;47.95;29.80;;;;;;;6.53;65.46;99550.42;1760627;81;21072;-72
2021/03/04 08:43:37;;;;;;;51.25;29.82;;;;;;;6.62;65.25;99548.25;1755138;81;22011;-69
2021/03/04 08:46:07;;;;;;;48.80;29.85;;;;;;;6.68;64.91;99541.95;1750028;81;21033;-75
2021/03/04 08:48:45;;;;;;;46.20;28.42;;;;;;;6.71;65.44;99527.58;1757968;80;21068;-71
2021/03/04 08:51:15;;;;;;;47.65;30.17;;;;;;;6.78;64.95;99532.00;1749739;80;20977;-68
2021/03/04 08:53:46;;;;;;;54.60;31.30;;;;;;;6.81;64.88;99524.89;1722475;83;21555;-68
2021/03/04 08:56:15;;;;;;;48.38;29.00;;;;;;;6.81;64.77;99530.06;1725548;83;21820;-70
2021/03/04 08:59:06;;;;;;;49.23;30.52;;;;;;;6.78;64.69;99535.42;1706914;83;21062;-70
2021/03/04 09:01:34;;;;;;;47.40;28.85;;;;;;;6.76;64.80;99526.06;1748263;81;20942;-70
2021/03/04 09:04:04;;;;;;;53.68;32.08;;;;;;;6.75;64.77;99524.38;1733558;82;20941;-70
2021/03/04 09:06:33;;;;;;;53.05;32.40;;;;;;;6.73;64.79;99512.81;1733419;82;21232;-70
2021/03/04 09:09:04;;;;;;;55.28;32.33;;;;;;;6.68;64.87;99505.73;1692122;83;20932;-74
2021/03/04 09:11:36;;;;;;;55.92;33.85;;;;;;;6.63;65.03;99498.19;1733509;82;21291;-73
2021/03/04 09:14:08;;;;;;;58.35;33.48;;;;;;;6.57;65.22;99500.23;1802053;79;21430;-69
2021/03/04 09:16:43;;;;;;;55.43;32.38;;;;;;;6.52;65.44;99497.02;1791007;80;21455;-70
2021/03/04 09:19:33;;;;;;;58.20;33.35;;;;;;;6.44;65.61;99488.33;1753276;81;20932;-70
2021/03/04 09:22:06;;;;;;;55.30;33.13;;;;;;;6.35;65.86;99479.74;1750053;80;21380;-71
2021/03/04 09:24:36;;;;;;;56.37;31.85;;;;;;;6.29;66.81;99467.94;1724542;83;20962;-67
2021/03/04 09:27:08;;;;;;;62.83;35.28;;;;;;;6.28;67.29;99458.51;1723478;82;20989;-66
2021/03/04 09:29:41;;;;;;;59.83;34.15;;;;;;;6.30;67.56;99448.94;1755172;80;21121;-68
2021/03/04 09:32:10;;;;;;;57.50;35.38;;;;;;;6.33;67.61;99446.20;1756715;81;20994;-65
2021/03/04 09:35:04;;;;;;;;;;;;;;;;;;;;;
2021/03/04 09:37:33;;;;;;;57.03;35.78;;;;;;;6.42;67.68;99439.72;1813042;77;22772;-69
2021/03/04 09:40:09;;;;;;;56.58;34.78;;;;;;;6.42;67.48;99432.42;1790210;79;20990;-72
2021/03/04 09:42:39;;;;;;;56.40;33.50;;;;;;;6.44;67.42;99430.14;1779548;80;21614;-72
2021/03/04 09:45:11;;;;;;;57.23;35.25;;;;;;;6.45;67.37;99430.98;1778575;79;21200;-70
2021/03/04 09:47:50;;;;;;;58.60;36.00;;;;;;;6.45;67.19;99426.64;1777828;78;21079;-73
2021/03/04 09:50:27;;;;;;;58.45;35.52;;;;;;;6.47;67.26;99423.53;1778591;80;20991;-72
2021/03/04 09:53:06;;;;;;;54.88;33.65;;;;;;;6.51;67.27;99416.45;1776657;80;20976;-71
2021/03/04 09:55:45;;;;;;;55.48;34.13;;;;;;;6.52;67.08;99415.09;1749708;80;21004;-68
2021/03/04 09:58:28;;;;;;;51.58;31.62;;;;;;;6.52;67.25;99415.55;1782288;79;21055;-74
2021/03/04 10:00:59;;;;;;;55.70;33.10;;;;;;;6.55;67.34;99414.11;1770097;80;21625;-70
2021/03/04 10:03:37;;;;;;;57.62;33.33;;;;;;;6.57;67.00;99406.65;1760803;80;21015;-76
2021/03/04 10:06:21;;;;;;;52.73;32.30;;;;;;;6.57;66.85;99401.94;1776885;80;21000;-71
2021/03/04 10:08:55;;;;;;;54.05;33.30;;;;;;;6.59;66.75;99397.52;1780835;78;22136;-77
2021/03/04 10:11:25;;;;;;;51.42;31.55;;;;;;;6.57;66.53;99393.72;1802955;79;21035;-83
2021/03/04 10:14:07;;;;;;;51.48;32.35;;;;;;;6.56;66.48;99379.56;1792013;80;21544;-70
2021/03/04 10:16:36;;;;;;;56.28;32.67;;;;;;;6.53;66.71;99383.14;1790182;79;21077;-71
2021/03/04 10:19:07;;;;;;;50.78;30.95;;;;;;;6.51;66.64;99381.09;1782131;78;21082;-70
2021/03/04 10:21:36;;;;;;;47.70;29.90;;;;;;;6.51;66.84;99377.20;1793313;80;22147;-74
2021/03/04 10:24:05;;;;;;;45.05;29.95;;;;;;;6.56;66.89;99376.98;1793008;80;21030;-75
2021/03/04 10:26:34;;;;;;;47.70;29.75;;;;;;;6.63;66.63;99373.17;1792608;80;21718;-72
2021/03/04 10:29:02;;;;;;;46.77;29.48;;;;;;;6.68;66.48;99370.74;1791325;78;21079;-67
2021/03/04 10:31:32;;;;;;;48.28;30.20;;;;;;;6.71;66.09;99363.28;1777778;78;21081;-67
2021/03/04 10:34:02;;;;;;;47.85;30.12;;;;;;;6.71;65.94;99353.39;1806271;78;22407;-68
2021/03/04 10:36:32;;;;;;;47.17;29.40;;;;;;;6.72;65.94;99347.30;1755518;81;21086;-72
2021/03/04 10:39:03;;;;;;;47.75;30.27;;;;;;;6.74;66.01;99339.00;1824992;76;21022;-72
2021/03/04 10:41:33;;;;;;;47.75;31.07;;;;;;;6.76;65.99;99329.41;1818631;77;21148;-72
2021/03/04 10:44:03;;;;;;;47.90;30.88;;;;;;;6.82;65.96;99330.36;1839040;77;21584;-68
2021/03/04 10:46:31;;;;;;;47.40;29.48;;;;;;;6.88;65.89;99323.13;1832454;77;21575;-70
2021/03/04 10:49:00;;;;;;;40.03;26.95;;;;;;;6.99;66.06;99325.16;1840349;77;20995;-67
2021/03/04 10:51:37;;;;;;;43.20;29.05;;;;;;;7.11;65.52;99319.34;1832667;77;21070;-70
2021/03/04 10:54:05;;;;;;;43.05;30.17;;;;;;;7.24;65.16;99320.78;1822947;77;21010;-69
2021/03/04 10:56:34;;;;;;;42.27;28.77;;;;;;;7.39;64.92;99310.06;1810670;77;21691;-72
2021/03/04 10:59:02;;;;;;;46.23;29.80;;;;;;;7.54;64.44;99318.30;1830153;77;21744;-73
2021/03/04 11:01:33;;;;;;;39.98;27.17;;;;;;;7.60;64.01;99305.81;1842830;77;21584;-66
2021/03/04 11:04:03;;;;;;;44.40;29.10;;;;;;;7.65;63.87;99306.41;1841541;77;21081;-72
2021/03/04 11:06:32;;;;;;;44.58;29.05;;;;;;;7.72;63.87;99302.17;1842636;77;21030;-69
2021/03/04 11:09:01;;;;;;;45.88;28.75;;;;;;;7.76;63.79;99287.67;1841597;76;20999;-71
2021/03/04 11:11:36;;;;;;;42.93;28.23;;;;;;;7.78;63.48;99274.16;1836268;77;21359;-73
2021/03/04 11:14:04;;;;;;;44.03;29.27;;;;;;;7.80;63.65;99271.02;1825226;77;20992;-69
2021/03/04 11:16:33;;;;;;;48.52;31.05;;;;;;;7.80;63.52;99263.25;1842399;77;21628;-67
2021/03/04 11:19:03;;;;;;;48.52;31.25;;;;;;;7.80;63.44;99252.05;1823749;76;21506;-66
2021/03/04 11:21:32;;;;;;;54.10;32.17;;;;;;;7.77;63.46;99258.70;1842681;76;21541;-67
2021/03/04 11:24:00;;;;;;;51.90;32.25;;;;;;;7.73;63.58;99247.67;1818485;77;22103;-67
2021/03/04 11:26:30;;;;;;;45.00;31.25;;;;;;;7.67;63.76;99241.08;1810004;79;21062;-70
2021/03/04 11:28:59;;;;;;;48.65;30.50;;;;;;;7.61;63.93;99247.90;1838135;77;20991;-70
2021/03/04 11:31:30;;;;;;;50.50;30.57;;;;;;;7.56;64.28;99247.35;1835745;76;21019;-67
2021/03/04 11:33:58;;;;;;;44.48;29.07;;;;;;;7.52;64.57;99247.61;1813168;76;20888;-72
2021/03/04 11:36:29;;;;;;;44.93;29.75;;;;;;;7.50;65.08;99239.08;1830355;77;21257;-74
2021/03/04 11:38:57;;;;;;;45.75;29.27;;;;;;;7.52;65.19;99234.66;1830043;76;21010;-72